This is the latest recevied weather packets stored in our database for station/object WMKA. If no packets are shown the sender has not sent any weather packets the latest 10 day(s).
| Time | Temp. | Humidity | Pressure | Rain* | Wind** | Luminosity | Snow |
|---|---|---|---|---|---|---|---|
| 1777633790 | 26.67° C | 88% | 1007 hPa | - | - | - | - |
| 1777630193 | 26.67° C | 88% | 1007 hPa | - | - | - | - |
| 1777626596 | 30.56° C | 74% | 1006 hPa | - | - | - | - |
| 1777622992 | 32.78° C | 59% | 1006 hPa | - | - | - | - |
| 1777619389 | 35° C | 63% | 1006 hPa | - | - | - | - |
| 1777615791 | 35° C | 49% | 1008 hPa | - | - | - | - |
| 1777612196 | 33.89° C | 59% | 1009 hPa | - | - | - | - |
| 1777608589 | 32.78° C | 62% | 1010 hPa | - | - | - | - |
| 1777604989 | 31.67° C | 62% | 1011 hPa | - | - | - | - |
| 1777601389 | 30.56° C | 70% | 1010 hPa | - | - | - | - |
| 1777597795 | 28.89° C | 79% | 1010 hPa | - | - | - | - |
| 1777594189 | 25.56° C | 94% | 1009 hPa | - | - | - | - |
| 1777590589 | 25° C | 94% | 1008 hPa | - | - | - | - |
| 1777586989 | 25.56° C | 94% | 1007 hPa | - | - | - | - |
| 1777583395 | 25.56° C | 94% | 1007 hPa | - | - | - | - |
| 1777579790 | 25.56° C | 94% | 1008 hPa | - | - | - | - |
| 1777576189 | 25.56° C | 94% | 1009 hPa | - | - | - | - |
| 1777572588 | 25.56° C | 94% | 1009 hPa | - | - | - | - |
| 1777568994 | 26.67° C | 88% | 1010 hPa | - | - | - | - |
| 1777565388 | 26.67° C | 94% | 1011 hPa | - | - | - | - |
| 1777561789 | 26.67° C | 94% | 1010 hPa | - | - | - | - |
| 1777558188 | 26.67° C | 88% | 1009 hPa | - | - | - | - |
| 1777554594 | 26.67° C | 88% | 1009 hPa | - | - | - | - |
| 1777550988 | 26.67° C | 88% | 1007 hPa | - | - | - | - |
| 1777547388 | 26.67° C | 88% | 1007 hPa | - | - | - | - |
* Rain since midnight (hover to see other rain measurements)
** Current wind speed in m/s (hover to see current wind gust speed)